Terminal Aerodrome Forecast
Issued by NWS

Current Version | Previous Version | Text Only | Print | Product List | Glossary On
Versions: 1 2 3 4 5 6 7 8 9 10 11 12 13 14 15 16 17 18 19 20 21 22 23 24 25 26 27 28 29 30 31
000
FTUS41 KOKX 292342 CCA
TAFHPN
TAF COR
KHPN 292342Z 3000/3024 14005KT P6SM SCT250
     FM300800 VRB02KT 2SM BR SCT005 BKN010
     FM301200 18006KT P6SM SCT015
     FM301700 18010G17KT P6SM SCT040
      AMD NOT SKED=

USA.gov is the U.S. government's official web portal to all federal, state and local government web resources and services.